Douglas, Bisbee-Douglas International Airport (KDUG)

NameBisbee-Douglas International Airport
CityDouglas
CountryUnited States
ICAOKDUG
IATADUG
Altitude1266 m
CoordinatesGoogle Map
Live Air TrafficLiveATC.net
METARKDUG 162156Z AUTO 29007KT 10SM VCTS FEW070 29/11 A3003 RMK AO2 LTG DSNT E AND SW AND NW SLP103 T02940106
2019-09-16 21:56:00 Wind: West (290°) 3.6 m/s - Visibility: 16093.4 m - Weather: Vicinity Thunderstorm - Temperature: 29 °C - Dew point: 11 °C - Humidity: 32.7% - Pressure: 1016.93 hPa
Statistics

The table below shows the detailed information of all flights to/from Douglas, Bisbee-Douglas International Airport (KDUG).